sensor_id;sensor_type;location;lat;lon;timestamp;temperature;humidity
17128;DHT22;8679;50.842;4.322;2023-07-30T00:01:41;16.30;98.40
17128;DHT22;8679;50.842;4.322;2023-07-30T00:04:07;16.30;99.90
17128;DHT22;8679;50.842;4.322;2023-07-30T00:06:32;16.30;99.90
17128;DHT22;8679;50.842;4.322;2023-07-30T00:08:58;16.30;99.90
17128;DHT22;8679;50.842;4.322;2023-07-30T00:11:23;16.20;99.90
17128;DHT22;8679;50.842;4.322;2023-07-30T00:13:49;16.20;99.90
17128;DHT22;8679;50.842;4.322;2023-07-30T00:16:15;16.20;99.90
17128;DHT22;8679;50.842;4.322;2023-07-30T00:18:40;16.20;99.90
17128;DHT22;8679;50.842;4.322;2023-07-30T00:21:06;16.20;99.90
17128;DHT22;8679;50.842;4.322;2023-07-30T00:23:32;16.20;99.90
17128;DHT22;8679;50.842;4.322;2023-07-30T00:25:57;16.20;99.90
17128;DHT22;8679;50.842;4.322;2023-07-30T00:28:23;16.20;99.90
17128;DHT22;8679;50.842;4.322;2023-07-30T00:30:48;16.20;99.90
17128;DHT22;8679;50.842;4.322;2023-07-30T00:33:14;16.20;99.90
17128;DHT22;8679;50.842;4.322;2023-07-30T00:35:40;16.20;99.90
17128;DHT22;8679;50.842;4.322;2023-07-30T00:38:05;16.20;99.90
17128;DHT22;8679;50.842;4.322;2023-07-30T00:40:31;16.20;99.90
17128;DHT22;8679;50.842;4.322;2023-07-30T00:42:56;16.20;99.90
17128;DHT22;8679;50.842;4.322;2023-07-30T00:45:22;16.30;99.90
17128;DHT22;8679;50.842;4.322;2023-07-30T00:47:48;16.30;99.90
17128;DHT22;8679;50.842;4.322;2023-07-30T00:50:15;16.20;99.90
17128;DHT22;8679;50.842;4.322;2023-07-30T00:52:42;16.20;99.90
17128;DHT22;8679;50.842;4.322;2023-07-30T00:55:09;16.20;99.90
17128;DHT22;8679;50.842;4.322;2023-07-30T00:57:36;16.20;99.90
17128;DHT22;8679;50.842;4.322;2023-07-30T01:00:02;16.20;99.90
17128;DHT22;8679;50.842;4.322;2023-07-30T01:02:31;16.30;99.90
17128;DHT22;8679;50.842;4.322;2023-07-30T01:04:57;16.30;99.90
17128;DHT22;8679;50.842;4.322;2023-07-30T01:07:25;16.30;99.90
17128;DHT22;8679;50.842;4.322;2023-07-30T01:09:51;16.30;99.90
17128;DHT22;8679;50.842;4.322;2023-07-30T01:12:17;16.30;99.90
17128;DHT22;8679;50.842;4.322;2023-07-30T01:14:45;16.30;99.90
17128;DHT22;8679;50.842;4.322;2023-07-30T01:17:11;16.40;99.90
17128;DHT22;8679;50.842;4.322;2023-07-30T01:19:37;16.40;99.90
17128;DHT22;8679;50.842;4.322;2023-07-30T01:22:03;16.40;99.90
17128;DHT22;8679;50.842;4.322;2023-07-30T01:24:29;16.40;99.90
17128;DHT22;8679;50.842;4.322;2023-07-30T01:27:19;16.50;99.90
17128;DHT22;8679;50.842;4.322;2023-07-30T01:32:27;16.50;99.90
17128;DHT22;8679;50.842;4.322;2023-07-30T01:34:55;16.60;99.90
17128;DHT22;8679;50.842;4.322;2023-07-30T01:37:22;16.50;99.90
17128;DHT22;8679;50.842;4.322;2023-07-30T01:39:48;16.60;99.90
17128;DHT22;8679;50.842;4.322;2023-07-30T01:42:15;16.60;99.90
17128;DHT22;8679;50.842;4.322;2023-07-30T01:44:41;16.60;99.90
17128;DHT22;8679;50.842;4.322;2023-07-30T01:47:07;16.60;99.90
17128;DHT22;8679;50.842;4.322;2023-07-30T01:49:32;16.60;99.90
17128;DHT22;8679;50.842;4.322;2023-07-30T01:51:58;16.60;99.90
17128;DHT22;8679;50.842;4.322;2023-07-30T01:54:24;16.70;99.90
17128;DHT22;8679;50.842;4.322;2023-07-30T01:56:50;16.70;99.90
17128;DHT22;8679;50.842;4.322;2023-07-30T01:59:16;16.70;99.90
17128;DHT22;8679;50.842;4.322;2023-07-30T02:01:42;16.70;99.90
17128;DHT22;8679;50.842;4.322;2023-07-30T02:04:08;16.70;99.90
17128;DHT22;8679;50.842;4.322;2023-07-30T02:06:34;16.70;99.90
17128;DHT22;8679;50.842;4.322;2023-07-30T02:08:59;16.70;99.90
17128;DHT22;8679;50.842;4.322;2023-07-30T02:11:25;16.70;99.90
17128;DHT22;8679;50.842;4.322;2023-07-30T02:13:51;16.70;99.90
17128;DHT22;8679;50.842;4.322;2023-07-30T02:16:16;16.70;99.90
17128;DHT22;8679;50.842;4.322;2023-07-30T02:18:42;16.70;99.90
17128;DHT22;8679;50.842;4.322;2023-07-30T02:21:08;16.70;99.90
17128;DHT22;8679;50.842;4.322;2023-07-30T02:23:33;16.70;99.90
17128;DHT22;8679;50.842;4.322;2023-07-30T02:25:59;16.70;99.90
17128;DHT22;8679;50.842;4.322;2023-07-30T02:28:25;16.70;99.90
17128;DHT22;8679;50.842;4.322;2023-07-30T02:30:51;16.70;99.90
17128;DHT22;8679;50.842;4.322;2023-07-30T02:33:16;16.70;99.90
17128;DHT22;8679;50.842;4.322;2023-07-30T02:35:43;16.60;99.90
17128;DHT22;8679;50.842;4.322;2023-07-30T02:38:09;16.60;99.90
17128;DHT22;8679;50.842;4.322;2023-07-30T02:40:34;16.60;99.90
17128;DHT22;8679;50.842;4.322;2023-07-30T02:43:00;16.50;99.90
17128;DHT22;8679;50.842;4.322;2023-07-30T02:45:26;16.50;99.90
17128;DHT22;8679;50.842;4.322;2023-07-30T02:47:51;16.50;99.90
17128;DHT22;8679;50.842;4.322;2023-07-30T02:50:17;16.40;99.90
17128;DHT22;8679;50.842;4.322;2023-07-30T02:52:43;16.50;99.90
17128;DHT22;8679;50.842;4.322;2023-07-30T02:55:09;16.40;99.90
17128;DHT22;8679;50.842;4.322;2023-07-30T02:57:35;16.40;99.90
17128;DHT22;8679;50.842;4.322;2023-07-30T03:00:00;16.40;99.90
17128;DHT22;8679;50.842;4.322;2023-07-30T03:02:26;16.30;99.90
17128;DHT22;8679;50.842;4.322;2023-07-30T03:04:52;16.40;99.90
17128;DHT22;8679;50.842;4.322;2023-07-30T03:07:18;16.40;99.90
17128;DHT22;8679;50.842;4.322;2023-07-30T03:09:45;16.30;99.90
17128;DHT22;8679;50.842;4.322;2023-07-30T03:12:11;16.30;99.90
17128;DHT22;8679;50.842;4.322;2023-07-30T03:14:36;16.40;99.90
17128;DHT22;8679;50.842;4.322;2023-07-30T03:17:02;16.40;99.90
17128;DHT22;8679;50.842;4.322;2023-07-30T03:19:30;16.30;99.90
17128;DHT22;8679;50.842;4.322;2023-07-30T03:21:56;16.30;99.90
17128;DHT22;8679;50.842;4.322;2023-07-30T03:24:21;16.30;99.90
17128;DHT22;8679;50.842;4.322;2023-07-30T03:26:47;16.30;99.90
17128;DHT22;8679;50.842;4.322;2023-07-30T03:29:13;16.30;99.90
17128;DHT22;8679;50.842;4.322;2023-07-30T03:31:38;16.30;99.90
17128;DHT22;8679;50.842;4.322;2023-07-30T03:34:04;16.30;99.90
17128;DHT22;8679;50.842;4.322;2023-07-30T03:36:29;16.30;99.90
17128;DHT22;8679;50.842;4.322;2023-07-30T03:38:55;16.30;99.90
17128;DHT22;8679;50.842;4.322;2023-07-30T03:41:21;16.30;99.90
17128;DHT22;8679;50.842;4.322;2023-07-30T03:43:47;16.30;99.90
17128;DHT22;8679;50.842;4.322;2023-07-30T03:46:13;16.20;99.90
17128;DHT22;8679;50.842;4.322;2023-07-30T03:48:38;16.20;99.90
17128;DHT22;8679;50.842;4.322;2023-07-30T03:51:04;16.20;99.90
17128;DHT22;8679;50.842;4.322;2023-07-30T03:53:30;16.20;99.90
17128;DHT22;8679;50.842;4.322;2023-07-30T03:55:56;16.20;99.90
17128;DHT22;8679;50.842;4.322;2023-07-30T03:58:21;16.20;99.90
17128;DHT22;8679;50.842;4.322;2023-07-30T04:00:47;16.20;99.90
17128;DHT22;8679;50.842;4.322;2023-07-30T04:03:12;16.10;99.90
17128;DHT22;8679;50.842;4.322;2023-07-30T04:05:38;16.10;99.90
17128;DHT22;8679;50.842;4.322;2023-07-30T04:08:04;16.10;99.90
17128;DHT22;8679;50.842;4.322;2023-07-30T04:10:29;16.00;99.90
17128;DHT22;8679;50.842;4.322;2023-07-30T04:12:55;16.00;99.90
17128;DHT22;8679;50.842;4.322;2023-07-30T04:15:20;16.00;99.90
17128;DHT22;8679;50.842;4.322;2023-07-30T04:17:46;16.00;99.90
17128;DHT22;8679;50.842;4.322;2023-07-30T04:20:12;16.00;99.90
17128;DHT22;8679;50.842;4.322;2023-07-30T04:22:37;16.00;99.90
17128;DHT22;8679;50.842;4.322;2023-07-30T04:25:04;16.00;99.90
17128;DHT22;8679;50.842;4.322;2023-07-30T04:27:29;15.90;99.90
17128;DHT22;8679;50.842;4.322;2023-07-30T04:29:55;15.80;99.90
17128;DHT22;8679;50.842;4.322;2023-07-30T04:32:21;15.80;99.90
17128;DHT22;8679;50.842;4.322;2023-07-30T04:34:47;15.80;99.90
17128;DHT22;8679;50.842;4.322;2023-07-30T04:37:12;15.80;99.90
17128;DHT22;8679;50.842;4.322;2023-07-30T04:39:38;15.80;99.90
17128;DHT22;8679;50.842;4.322;2023-07-30T04:42:04;15.80;99.90
17128;DHT22;8679;50.842;4.322;2023-07-30T04:44:30;15.80;99.90
17128;DHT22;8679;50.842;4.322;2023-07-30T04:46:55;15.80;99.90
17128;DHT22;8679;50.842;4.322;2023-07-30T04:49:21;15.80;99.90
17128;DHT22;8679;50.842;4.322;2023-07-30T04:51:47;15.80;99.90
17128;DHT22;8679;50.842;4.322;2023-07-30T04:54:13;15.80;99.90
17128;DHT22;8679;50.842;4.322;2023-07-30T04:56:38;15.80;99.90
17128;DHT22;8679;50.842;4.322;2023-07-30T04:59:04;15.80;99.90
17128;DHT22;8679;50.842;4.322;2023-07-30T05:01:30;15.80;99.90
17128;DHT22;8679;50.842;4.322;2023-07-30T05:03:56;15.90;99.90
17128;DHT22;8679;50.842;4.322;2023-07-30T05:06:22;15.90;99.90
17128;DHT22;8679;50.842;4.322;2023-07-30T05:08:48;15.90;99.90
17128;DHT22;8679;50.842;4.322;2023-07-30T05:11:14;15.90;99.90
17128;DHT22;8679;50.842;4.322;2023-07-30T05:13:40;15.90;99.90
17128;DHT22;8679;50.842;4.322;2023-07-30T05:16:06;16.00;99.90
17128;DHT22;8679;50.842;4.322;2023-07-30T05:18:32;16.00;99.90
17128;DHT22;8679;50.842;4.322;2023-07-30T05:20:57;16.00;99.90
17128;DHT22;8679;50.842;4.322;2023-07-30T05:23:23;15.90;99.90
17128;DHT22;8679;50.842;4.322;2023-07-30T05:25:49;15.90;99.90
17128;DHT22;8679;50.842;4.322;2023-07-30T05:28:15;16.00;99.90
17128;DHT22;8679;50.842;4.322;2023-07-30T05:30:40;16.00;99.90
17128;DHT22;8679;50.842;4.322;2023-07-30T05:33:06;16.00;99.90
17128;DHT22;8679;50.842;4.322;2023-07-30T05:35:31;16.10;99.90
17128;DHT22;8679;50.842;4.322;2023-07-30T05:37:57;16.10;99.90
17128;DHT22;8679;50.842;4.322;2023-07-30T05:40:23;16.10;99.90
17128;DHT22;8679;50.842;4.322;2023-07-30T05:42:48;16.00;99.90
17128;DHT22;8679;50.842;4.322;2023-07-30T05:45:14;16.10;99.90
17128;DHT22;8679;50.842;4.322;2023-07-30T05:47:40;16.10;99.90
17128;DHT22;8679;50.842;4.322;2023-07-30T05:50:08;16.20;99.90
17128;DHT22;8679;50.842;4.322;2023-07-30T05:52:34;16.20;99.90
17128;DHT22;8679;50.842;4.322;2023-07-30T05:55:00;16.20;99.90
17128;DHT22;8679;50.842;4.322;2023-07-30T05:57:25;16.20;99.90
17128;DHT22;8679;50.842;4.322;2023-07-30T05:59:51;16.20;99.90
17128;DHT22;8679;50.842;4.322;2023-07-30T06:02:17;16.30;99.90
17128;DHT22;8679;50.842;4.322;2023-07-30T06:04:43;16.20;99.90
17128;DHT22;8679;50.842;4.322;2023-07-30T06:07:10;16.20;99.90
17128;DHT22;8679;50.842;4.322;2023-07-30T06:09:36;16.20;99.90
17128;DHT22;8679;50.842;4.322;2023-07-30T06:12:02;16.30;99.90
17128;DHT22;8679;50.842;4.322;2023-07-30T06:14:27;16.30;99.90
17128;DHT22;8679;50.842;4.322;2023-07-30T06:16:53;16.20;99.90
17128;DHT22;8679;50.842;4.322;2023-07-30T06:19:19;16.20;99.90
17128;DHT22;8679;50.842;4.322;2023-07-30T06:21:45;16.30;99.90
17128;DHT22;8679;50.842;4.322;2023-07-30T06:24:11;16.30;99.90
17128;DHT22;8679;50.842;4.322;2023-07-30T06:26:36;16.30;99.90
17128;DHT22;8679;50.842;4.322;2023-07-30T06:29:02;16.30;99.90
17128;DHT22;8679;50.842;4.322;2023-07-30T06:31:28;16.30;99.90
17128;DHT22;8679;50.842;4.322;2023-07-30T06:33:54;16.30;99.90
17128;DHT22;8679;50.842;4.322;2023-07-30T06:36:20;16.40;99.90
17128;DHT22;8679;50.842;4.322;2023-07-30T06:38:45;16.40;99.90
17128;DHT22;8679;50.842;4.322;2023-07-30T06:41:11;16.40;99.90
17128;DHT22;8679;50.842;4.322;2023-07-30T06:43:37;16.40;99.90
17128;DHT22;8679;50.842;4.322;2023-07-30T06:46:02;16.40;99.90
17128;DHT22;8679;50.842;4.322;2023-07-30T06:48:29;16.30;99.90
17128;DHT22;8679;50.842;4.322;2023-07-30T06:50:54;16.40;99.90
17128;DHT22;8679;50.842;4.322;2023-07-30T06:53:20;16.30;99.90
17128;DHT22;8679;50.842;4.322;2023-07-30T06:55:46;16.40;99.90
17128;DHT22;8679;50.842;4.322;2023-07-30T06:58:11;16.40;99.90
17128;DHT22;8679;50.842;4.322;2023-07-30T07:00:37;16.50;99.90
17128;DHT22;8679;50.842;4.322;2023-07-30T07:03:03;16.60;99.90
17128;DHT22;8679;50.842;4.322;2023-07-30T07:05:29;16.70;99.90
17128;DHT22;8679;50.842;4.322;2023-07-30T07:07:55;16.90;99.90
17128;DHT22;8679;50.842;4.322;2023-07-30T07:10:21;17.00;99.90
17128;DHT22;8679;50.842;4.322;2023-07-30T07:12:46;17.10;99.90
17128;DHT22;8679;50.842;4.322;2023-07-30T07:15:12;17.10;85.80
17128;DHT22;8679;50.842;4.322;2023-07-30T07:17:38;17.20;45.30
17128;DHT22;8679;50.842;4.322;2023-07-30T07:20:05;17.40;1.00
17128;DHT22;8679;50.842;4.322;2023-07-30T07:22:32;17.40;1.00
17128;DHT22;8679;50.842;4.322;2023-07-30T07:24:58;17.50;1.00
17128;DHT22;8679;50.842;4.322;2023-07-30T07:27:24;17.70;1.00
17128;DHT22;8679;50.842;4.322;2023-07-30T07:29:50;18.00;1.00
17128;DHT22;8679;50.842;4.322;2023-07-30T07:32:17;17.90;1.00
17128;DHT22;8679;50.842;4.322;2023-07-30T07:34:49;17.90;1.00
17128;DHT22;8679;50.842;4.322;2023-07-30T07:37:15;18.00;1.00
17128;DHT22;8679;50.842;4.322;2023-07-30T07:39:42;18.00;1.00
17128;DHT22;8679;50.842;4.322;2023-07-30T07:42:09;18.00;1.00
17128;DHT22;8679;50.842;4.322;2023-07-30T07:44:34;18.10;1.00
17128;DHT22;8679;50.842;4.322;2023-07-30T07:47:00;18.10;1.00
17128;DHT22;8679;50.842;4.322;2023-07-30T07:49:26;18.20;1.00
17128;DHT22;8679;50.842;4.322;2023-07-30T07:51:51;18.20;1.00
17128;DHT22;8679;50.842;4.322;2023-07-30T07:54:17;18.20;1.00
17128;DHT22;8679;50.842;4.322;2023-07-30T07:56:43;18.30;1.00
17128;DHT22;8679;50.842;4.322;2023-07-30T07:59:08;18.30;1.00
17128;DHT22;8679;50.842;4.322;2023-07-30T08:01:34;18.40;1.00
17128;DHT22;8679;50.842;4.322;2023-07-30T08:04:00;18.50;1.00
17128;DHT22;8679;50.842;4.322;2023-07-30T08:06:25;18.60;99.90
17128;DHT22;8679;50.842;4.322;2023-07-30T08:08:51;18.60;99.90
17128;DHT22;8679;50.842;4.322;2023-07-30T08:11:17;18.60;99.90
17128;DHT22;8679;50.842;4.322;2023-07-30T08:13:42;18.60;99.90
17128;DHT22;8679;50.842;4.322;2023-07-30T08:16:08;18.80;99.90
17128;DHT22;8679;50.842;4.322;2023-07-30T08:18:34;18.70;99.90
17128;DHT22;8679;50.842;4.322;2023-07-30T08:21:00;18.70;1.00
17128;DHT22;8679;50.842;4.322;2023-07-30T08:23:26;18.80;81.40
17128;DHT22;8679;50.842;4.322;2023-07-30T08:25:51;18.80;1.00
17128;DHT22;8679;50.842;4.322;2023-07-30T08:28:17;18.80;1.00
17128;DHT22;8679;50.842;4.322;2023-07-30T08:30:43;18.80;1.00
17128;DHT22;8679;50.842;4.322;2023-07-30T08:33:08;18.80;1.00
17128;DHT22;8679;50.842;4.322;2023-07-30T08:35:34;18.80;1.00
17128;DHT22;8679;50.842;4.322;2023-07-30T08:38:00;18.80;1.00
17128;DHT22;8679;50.842;4.322;2023-07-30T08:40:26;18.90;1.00
17128;DHT22;8679;50.842;4.322;2023-07-30T08:42:52;18.90;1.00
17128;DHT22;8679;50.842;4.322;2023-07-30T08:45:18;18.90;1.00
17128;DHT22;8679;50.842;4.322;2023-07-30T08:47:44;18.90;1.00
17128;DHT22;8679;50.842;4.322;2023-07-30T08:50:10;18.90;1.00
17128;DHT22;8679;50.842;4.322;2023-07-30T08:52:36;18.80;1.00
17128;DHT22;8679;50.842;4.322;2023-07-30T08:55:06;18.80;1.00
17128;DHT22;8679;50.842;4.322;2023-07-30T08:57:32;18.90;1.00
17128;DHT22;8679;50.842;4.322;2023-07-30T09:00:04;18.80;1.00
17128;DHT22;8679;50.842;4.322;2023-07-30T09:02:37;18.70;99.90
17128;DHT22;8679;50.842;4.322;2023-07-30T09:05:03;18.60;1.00
17128;DHT22;8679;50.842;4.322;2023-07-30T09:07:29;18.60;1.00
17128;DHT22;8679;50.842;4.322;2023-07-30T09:09:55;18.80;1.00
17128;DHT22;8679;50.842;4.322;2023-07-30T09:12:29;19.00;1.00
17128;DHT22;8679;50.842;4.322;2023-07-30T09:14:55;19.00;99.90
17128;DHT22;8679;50.842;4.322;2023-07-30T09:17:20;18.90;99.90
17128;DHT22;8679;50.842;4.322;2023-07-30T09:19:46;18.60;1.00
17128;DHT22;8679;50.842;4.322;2023-07-30T09:22:13;18.50;1.00
17128;DHT22;8679;50.842;4.322;2023-07-30T09:24:44;18.50;1.00
17128;DHT22;8679;50.842;4.322;2023-07-30T09:27:10;18.60;1.00
17128;DHT22;8679;50.842;4.322;2023-07-30T09:29:36;18.70;1.00
17128;DHT22;8679;50.842;4.322;2023-07-30T09:32:02;18.60;1.00
17128;DHT22;8679;50.842;4.322;2023-07-30T09:34:27;18.70;1.00
17128;DHT22;8679;50.842;4.322;2023-07-30T09:36:55;18.80;1.00
17128;DHT22;8679;50.842;4.322;2023-07-30T09:39:23;18.80;99.90
17128;DHT22;8679;50.842;4.322;2023-07-30T09:42:00;18.80;1.00
17128;DHT22;8679;50.842;4.322;2023-07-30T09:44:26;18.60;1.00
17128;DHT22;8679;50.842;4.322;2023-07-30T09:46:52;18.50;1.00
17128;DHT22;8679;50.842;4.322;2023-07-30T09:49:18;18.50;1.00
17128;DHT22;8679;50.842;4.322;2023-07-30T09:51:44;18.60;1.00
17128;DHT22;8679;50.842;4.322;2023-07-30T09:54:14;18.60;1.00
17128;DHT22;8679;50.842;4.322;2023-07-30T09:56:41;18.80;1.00
17128;DHT22;8679;50.842;4.322;2023-07-30T09:59:08;18.90;99.90
17128;DHT22;8679;50.842;4.322;2023-07-30T10:01:40;18.70;1.00
17128;DHT22;8679;50.842;4.322;2023-07-30T10:04:11;18.50;99.90
17128;DHT22;8679;50.842;4.322;2023-07-30T10:06:43;18.40;1.00
17128;DHT22;8679;50.842;4.322;2023-07-30T10:09:12;18.40;1.00
17128;DHT22;8679;50.842;4.322;2023-07-30T10:11:40;18.60;99.90
17128;DHT22;8679;50.842;4.322;2023-07-30T10:14:06;18.70;1.00
17128;DHT22;8679;50.842;4.322;2023-07-30T10:16:32;18.90;1.00
17128;DHT22;8679;50.842;4.322;2023-07-30T10:18:58;19.10;99.90
17128;DHT22;8679;50.842;4.322;2023-07-30T10:21:26;19.20;89.10
17128;DHT22;8679;50.842;4.322;2023-07-30T10:24:02;19.20;99.90
17128;DHT22;8679;50.842;4.322;2023-07-30T10:26:32;19.30;1.00
17128;DHT22;8679;50.842;4.322;2023-07-30T10:29:15;19.40;99.90
17128;DHT22;8679;50.842;4.322;2023-07-30T10:31:43;19.60;99.90
17128;DHT22;8679;50.842;4.322;2023-07-30T10:34:10;20.00;1.00
17128;DHT22;8679;50.842;4.322;2023-07-30T10:36:40;20.30;99.90
17128;DHT22;8679;50.842;4.322;2023-07-30T10:39:19;20.20;99.90
17128;DHT22;8679;50.842;4.322;2023-07-30T10:41:55;20.00;1.00
17128;DHT22;8679;50.842;4.322;2023-07-30T10:44:28;19.90;1.00
17128;DHT22;8679;50.842;4.322;2023-07-30T10:46:55;19.70;1.00
17128;DHT22;8679;50.842;4.322;2023-07-30T10:49:21;19.40;35.40
17128;DHT22;8679;50.842;4.322;2023-07-30T10:51:47;19.30;1.00
17128;DHT22;8679;50.842;4.322;2023-07-30T10:54:13;19.40;1.00
17128;DHT22;8679;50.842;4.322;2023-07-30T10:56:41;19.40;1.00
17128;DHT22;8679;50.842;4.322;2023-07-30T10:59:08;19.50;99.90
17128;DHT22;8679;50.842;4.322;2023-07-30T11:01:42;19.60;46.30
17128;DHT22;8679;50.842;4.322;2023-07-30T11:04:13;19.80;1.00
17128;DHT22;8679;50.842;4.322;2023-07-30T11:06:44;20.10;1.00
17128;DHT22;8679;50.842;4.322;2023-07-30T11:09:22;20.40;99.90
17128;DHT22;8679;50.842;4.322;2023-07-30T11:11:49;20.60;1.00
17128;DHT22;8679;50.842;4.322;2023-07-30T11:14:25;20.90;1.00
17128;DHT22;8679;50.842;4.322;2023-07-30T11:16:56;20.90;99.90
17128;DHT22;8679;50.842;4.322;2023-07-30T11:19:26;21.00;99.90
17128;DHT22;8679;50.842;4.322;2023-07-30T11:21:53;20.90;79.30
17128;DHT22;8679;50.842;4.322;2023-07-30T11:24:19;21.00;99.90
17128;DHT22;8679;50.842;4.322;2023-07-30T11:27:00;21.30;1.00
17128;DHT22;8679;50.842;4.322;2023-07-30T11:29:26;21.30;97.40
17128;DHT22;8679;50.842;4.322;2023-07-30T11:31:56;21.40;1.00
17128;DHT22;8679;50.842;4.322;2023-07-30T11:34:22;21.50;99.90
17128;DHT22;8679;50.842;4.322;2023-07-30T11:36:48;21.50;99.90
17128;DHT22;8679;50.842;4.322;2023-07-30T11:39:14;21.70;99.90
17128;DHT22;8679;50.842;4.322;2023-07-30T11:41:40;21.60;99.90
17128;DHT22;8679;50.842;4.322;2023-07-30T11:44:06;21.50;1.00
17128;DHT22;8679;50.842;4.322;2023-07-30T11:46:32;21.40;99.90
17128;DHT22;8679;50.842;4.322;2023-07-30T11:49:12;21.60;99.90
17128;DHT22;8679;50.842;4.322;2023-07-30T11:51:39;21.80;58.70
17128;DHT22;8679;50.842;4.322;2023-07-30T11:54:05;21.90;1.00
17128;DHT22;8679;50.842;4.322;2023-07-30T11:56:32;21.90;1.00
17128;DHT22;8679;50.842;4.322;2023-07-30T11:59:06;21.90;1.00
17128;DHT22;8679;50.842;4.322;2023-07-30T12:01:33;21.70;1.00
17128;DHT22;8679;50.842;4.322;2023-07-30T12:04:05;21.60;1.00
17128;DHT22;8679;50.842;4.322;2023-07-30T12:09:21;21.50;70.10
17128;DHT22;8679;50.842;4.322;2023-07-30T12:14:17;21.70;99.90
17128;DHT22;8679;50.842;4.322;2023-07-30T12:16:43;21.90;99.90
17128;DHT22;8679;50.842;4.322;2023-07-30T12:19:08;22.20;32.10
17128;DHT22;8679;50.842;4.322;2023-07-30T12:21:34;22.10;1.00
17128;DHT22;8679;50.842;4.322;2023-07-30T12:24:00;22.10;1.00
17128;DHT22;8679;50.842;4.322;2023-07-30T12:26:25;21.80;1.00
17128;DHT22;8679;50.842;4.322;2023-07-30T12:28:51;21.80;1.00
17128;DHT22;8679;50.842;4.322;2023-07-30T12:31:16;21.90;1.00
17128;DHT22;8679;50.842;4.322;2023-07-30T12:33:43;21.70;99.90
17128;DHT22;8679;50.842;4.322;2023-07-30T12:36:09;21.80;1.00
17128;DHT22;8679;50.842;4.322;2023-07-30T12:38:35;21.90;1.00
17128;DHT22;8679;50.842;4.322;2023-07-30T12:41:00;21.80;8.90
17128;DHT22;8679;50.842;4.322;2023-07-30T12:43:26;21.70;1.00
17128;DHT22;8679;50.842;4.322;2023-07-30T12:45:51;21.70;99.90
17128;DHT22;8679;50.842;4.322;2023-07-30T12:48:17;21.80;99.90
17128;DHT22;8679;50.842;4.322;2023-07-30T12:50:43;22.00;1.00
17128;DHT22;8679;50.842;4.322;2023-07-30T12:53:08;21.90;99.90
17128;DHT22;8679;50.842;4.322;2023-07-30T12:55:34;22.10;99.90
17128;DHT22;8679;50.842;4.322;2023-07-30T12:58:00;22.60;1.00
17128;DHT22;8679;50.842;4.322;2023-07-30T13:00:26;22.90;99.90
17128;DHT22;8679;50.842;4.322;2023-07-30T13:02:51;23.00;99.90
17128;DHT22;8679;50.842;4.322;2023-07-30T13:05:21;23.20;1.00
17128;DHT22;8679;50.842;4.322;2023-07-30T13:07:47;23.00;99.90
17128;DHT22;8679;50.842;4.322;2023-07-30T13:10:12;23.10;1.00
17128;DHT22;8679;50.842;4.322;2023-07-30T13:12:38;23.10;1.00
17128;DHT22;8679;50.842;4.322;2023-07-30T13:15:04;23.00;1.00
17128;DHT22;8679;50.842;4.322;2023-07-30T13:17:31;23.10;99.90
17128;DHT22;8679;50.842;4.322;2023-07-30T13:19:57;23.10;99.90
17128;DHT22;8679;50.842;4.322;2023-07-30T13:22:23;23.80;99.90
17128;DHT22;8679;50.842;4.322;2023-07-30T13:24:49;23.90;99.90
17128;DHT22;8679;50.842;4.322;2023-07-30T13:27:15;24.00;1.00
17128;DHT22;8679;50.842;4.322;2023-07-30T13:29:40;23.90;1.00
17128;DHT22;8679;50.842;4.322;2023-07-30T13:32:06;24.20;1.00
17128;DHT22;8679;50.842;4.322;2023-07-30T13:34:32;23.80;99.90
17128;DHT22;8679;50.842;4.322;2023-07-30T13:36:58;23.50;1.00
17128;DHT22;8679;50.842;4.322;2023-07-30T13:39:23;23.60;99.90
17128;DHT22;8679;50.842;4.322;2023-07-30T13:41:49;24.00;99.90
17128;DHT22;8679;50.842;4.322;2023-07-30T13:44:14;24.10;1.00
17128;DHT22;8679;50.842;4.322;2023-07-30T13:46:40;24.30;5.70
17128;DHT22;8679;50.842;4.322;2023-07-30T13:56:27;24.50;1.00
17128;DHT22;8679;50.842;4.322;2023-07-30T13:58:52;23.20;99.90
17128;DHT22;8679;50.842;4.322;2023-07-30T14:01:18;23.10;99.90
17128;DHT22;8679;50.842;4.322;2023-07-30T14:03:44;23.20;99.90
17128;DHT22;8679;50.842;4.322;2023-07-30T14:06:10;23.50;57.90
17128;DHT22;8679;50.842;4.322;2023-07-30T14:08:36;23.40;1.00
17128;DHT22;8679;50.842;4.322;2023-07-30T14:11:02;23.40;1.00
17128;DHT22;8679;50.842;4.322;2023-07-30T14:13:28;23.30;1.00
17128;DHT22;8679;50.842;4.322;2023-07-30T14:15:54;23.10;99.90
17128;DHT22;8679;50.842;4.322;2023-07-30T14:18:21;22.80;99.90
17128;DHT22;8679;50.842;4.322;2023-07-30T14:20:47;22.50;95.00
17128;DHT22;8679;50.842;4.322;2023-07-30T14:23:12;22.40;1.00
17128;DHT22;8679;50.842;4.322;2023-07-30T14:25:38;22.40;1.00
17128;DHT22;8679;50.842;4.322;2023-07-30T14:28:04;22.70;1.00
17128;DHT22;8679;50.842;4.322;2023-07-30T14:30:30;22.90;1.00
17128;DHT22;8679;50.842;4.322;2023-07-30T14:32:55;23.20;1.00
17128;DHT22;8679;50.842;4.322;2023-07-30T14:35:21;23.20;1.00
17128;DHT22;8679;50.842;4.322;2023-07-30T14:37:47;23.30;1.00
17128;DHT22;8679;50.842;4.322;2023-07-30T14:40:13;23.20;1.00
17128;DHT22;8679;50.842;4.322;2023-07-30T14:42:38;22.80;1.00
17128;DHT22;8679;50.842;4.322;2023-07-30T14:45:06;22.60;1.00
17128;DHT22;8679;50.842;4.322;2023-07-30T14:47:32;22.50;99.90
17128;DHT22;8679;50.842;4.322;2023-07-30T14:49:58;22.40;1.00
17128;DHT22;8679;50.842;4.322;2023-07-30T14:52:24;22.40;99.90
17128;DHT22;8679;50.842;4.322;2023-07-30T14:54:50;22.40;99.90
17128;DHT22;8679;50.842;4.322;2023-07-30T14:57:16;22.40;99.90
17128;DHT22;8679;50.842;4.322;2023-07-30T14:59:42;22.10;1.00
17128;DHT22;8679;50.842;4.322;2023-07-30T15:02:07;21.80;1.00
17128;DHT22;8679;50.842;4.322;2023-07-30T15:04:33;21.60;1.00
17128;DHT22;8679;50.842;4.322;2023-07-30T15:06:59;21.50;1.00
17128;DHT22;8679;50.842;4.322;2023-07-30T15:09:24;21.40;1.00
17128;DHT22;8679;50.842;4.322;2023-07-30T15:11:50;21.30;1.00
17128;DHT22;8679;50.842;4.322;2023-07-30T15:14:16;21.30;1.00
17128;DHT22;8679;50.842;4.322;2023-07-30T15:16:41;21.10;1.00
17128;DHT22;8679;50.842;4.322;2023-07-30T15:19:07;21.00;92.50
17128;DHT22;8679;50.842;4.322;2023-07-30T15:21:33;20.90;99.90
17128;DHT22;8679;50.842;4.322;2023-07-30T15:24:00;20.90;99.90
17128;DHT22;8679;50.842;4.322;2023-07-30T15:26:26;20.90;99.90
17128;DHT22;8679;50.842;4.322;2023-07-30T15:28:52;20.80;1.00
17128;DHT22;8679;50.842;4.322;2023-07-30T15:31:18;20.40;1.00
17128;DHT22;8679;50.842;4.322;2023-07-30T15:33:44;19.90;99.90
17128;DHT22;8679;50.842;4.322;2023-07-30T15:36:09;19.60;1.00
17128;DHT22;8679;50.842;4.322;2023-07-30T15:38:35;19.30;99.90
17128;DHT22;8679;50.842;4.322;2023-07-30T15:41:01;19.10;43.00
17128;DHT22;8679;50.842;4.322;2023-07-30T15:43:26;19.10;99.90
17128;DHT22;8679;50.842;4.322;2023-07-30T15:45:52;19.10;1.00
17128;DHT22;8679;50.842;4.322;2023-07-30T15:48:19;19.20;1.00
17128;DHT22;8679;50.842;4.322;2023-07-30T15:50:45;19.30;99.90
17128;DHT22;8679;50.842;4.322;2023-07-30T15:53:10;19.40;56.50
17128;DHT22;8679;50.842;4.322;2023-07-30T15:55:36;19.50;1.00
17128;DHT22;8679;50.842;4.322;2023-07-30T15:58:02;19.50;1.00
17128;DHT22;8679;50.842;4.322;2023-07-30T16:00:27;19.50;1.00
17128;DHT22;8679;50.842;4.322;2023-07-30T16:02:53;19.50;1.00